createdAt,value
2022-07-25T00:00:16.340Z,91.02
2022-07-25T00:02:44.947Z,92.47
2022-07-25T00:05:13.373Z,91.73
2022-07-25T00:07:43.063Z,91.45
2022-07-25T00:10:12.315Z,91.08
2022-07-25T00:12:40.995Z,93.28
2022-07-25T00:15:10.557Z,91.98
2022-07-25T00:17:39.893Z,92.13
2022-07-25T00:20:10.338Z,91.65
2022-07-25T00:22:38.691Z,92.43
2022-07-25T00:25:09.562Z,93.68
2022-07-25T00:27:37.839Z,92.60
2022-07-25T00:30:08.002Z,93.65
2022-07-25T00:32:36.577Z,94.10
2022-07-25T00:35:05.578Z,91.68
2022-07-25T00:37:33.930Z,92.87
2022-07-25T00:40:03.441Z,92.65
2022-07-25T00:42:34.366Z,92.30
2022-07-25T00:45:02.672Z,92.03
2022-07-25T00:47:31.386Z,92.37
2022-07-25T00:49:59.994Z,93.00
2022-07-25T00:52:28.760Z,92.69
2022-07-25T00:54:57.843Z,93.60
2022-07-25T00:57:26.396Z,93.13
2022-07-25T00:59:56.101Z,93.49
2022-07-25T01:02:24.981Z,93.45
2022-07-25T01:04:54.439Z,95.14
2022-07-25T01:07:22.986Z,95.39
2022-07-25T01:09:51.769Z,95.26
2022-07-25T01:12:20.457Z,94.90
2022-07-25T01:14:48.724Z,94.53
2022-07-25T01:17:18.711Z,96.64
2022-07-25T01:19:47.364Z,95.48
2022-07-25T01:22:16.976Z,95.30
2022-07-25T01:24:45.586Z,94.90
2022-07-25T01:27:17.183Z,95.60
2022-07-25T01:29:45.895Z,95.92
2022-07-25T01:32:14.196Z,95.89
2022-07-25T01:34:42.780Z,95.81
2022-07-25T01:37:11.047Z,96.66
2022-07-25T01:39:40.655Z,97.79
2022-07-25T01:42:09.056Z,96.91
2022-07-25T01:44:37.647Z,97.29
2022-07-25T01:47:06.303Z,96.54
2022-07-25T01:49:35.001Z,96.16
2022-07-25T01:52:03.733Z,98.23
2022-07-25T01:54:32.226Z,97.53
2022-07-25T01:57:01.900Z,98.76
2022-07-25T01:59:30.579Z,98.76
2022-07-25T02:01:58.929Z,98.89
2022-07-25T02:04:27.361Z,98.82
2022-07-25T02:06:55.765Z,99.67
2022-07-25T02:09:24.399Z,99.49
2022-07-25T02:11:53.025Z,98.79
2022-07-25T02:14:24.225Z,98.51
2022-07-25T02:16:52.727Z,99.17
2022-07-25T02:19:21.114Z,98.16
2022-07-25T02:21:49.443Z,99.10
2022-07-25T02:24:17.808Z,99.77
2022-07-25T02:26:46.407Z,99.89
2022-07-25T02:29:14.673Z,99.09
2022-07-25T02:31:44.323Z,98.71
2022-07-25T02:34:13.988Z,98.96
2022-07-25T02:36:42.394Z,99.90
2022-07-25T02:39:10.705Z,100.00
2022-07-25T02:41:39.307Z,97.97
2022-07-25T02:44:08.417Z,98.02
2022-07-25T02:46:37.308Z,97.83
2022-07-25T02:49:07.108Z,97.96
2022-07-25T02:51:35.471Z,99.27
2022-07-25T02:54:03.771Z,98.28
2022-07-25T02:56:33.232Z,98.53
2022-07-25T02:59:01.907Z,99.20
2022-07-25T03:01:30.809Z,100.00
2022-07-25T03:03:59.248Z,100.00
2022-07-25T03:06:29.070Z,100.00
2022-07-25T03:08:57.383Z,100.00
2022-07-25T03:11:25.647Z,100.00
2022-07-25T03:13:54.954Z,100.00
2022-07-25T03:16:23.289Z,100.00
2022-07-25T03:18:52.183Z,100.00
2022-07-25T03:21:20.526Z,100.00
2022-07-25T03:23:52.716Z,100.00
2022-07-25T03:26:21.733Z,100.00
2022-07-25T03:28:50.087Z,100.00
2022-07-25T03:31:18.443Z,100.00
2022-07-25T03:33:47.064Z,100.00
2022-07-25T03:36:15.365Z,100.00
2022-07-25T03:38:43.627Z,100.00
2022-07-25T03:41:13.963Z,100.00
2022-07-25T03:43:42.262Z,98.21
2022-07-25T03:46:10.613Z,98.32
2022-07-25T03:48:39.058Z,98.47
2022-07-25T03:51:07.607Z,97.34
2022-07-25T03:53:56.745Z,99.16
2022-07-25T03:56:26.470Z,99.34
2022-07-25T03:58:55.031Z,99.41
2022-07-25T04:01:23.694Z,98.82
2022-07-25T04:03:55.437Z,97.69
2022-07-25T04:06:24.483Z,97.05
2022-07-25T04:08:53.273Z,97.30
2022-07-25T04:11:21.693Z,97.80
2022-07-25T04:13:52.681Z,97.68
2022-07-25T04:16:22.713Z,97.63
2022-07-25T04:18:52.300Z,99.09
2022-07-25T04:21:21.068Z,98.27
2022-07-25T04:23:49.873Z,98.37
2022-07-25T04:26:18.828Z,97.68
2022-07-25T04:28:47.250Z,97.89
2022-07-25T04:31:17.154Z,97.97
2022-07-25T04:33:46.230Z,99.28
2022-07-25T04:36:14.612Z,98.00
2022-07-25T04:38:43.083Z,97.99
2022-07-25T04:41:11.698Z,97.33
2022-07-25T04:43:43.597Z,95.86
2022-07-25T04:46:19.450Z,97.86
2022-07-25T04:48:48.150Z,98.02
2022-07-25T04:51:16.945Z,96.94
2022-07-25T04:53:45.685Z,96.55
2022-07-25T04:56:14.087Z,97.92
2022-07-25T04:58:42.454Z,96.00
2022-07-25T05:01:10.814Z,95.10
2022-07-25T05:03:40.571Z,93.86
2022-07-25T05:06:09.631Z,93.87
2022-07-25T05:08:38.275Z,94.30
2022-07-25T05:11:06.869Z,93.26
2022-07-25T05:13:35.367Z,91.66
2022-07-25T05:16:03.933Z,91.27
2022-07-25T05:18:32.277Z,90.78
2022-07-25T05:21:02.023Z,90.25
2022-07-25T05:23:30.665Z,87.32
2022-07-25T05:25:58.939Z,87.08
2022-07-25T05:28:27.311Z,86.87
2022-07-25T05:30:55.611Z,85.84
2022-07-25T05:33:23.862Z,85.65
2022-07-25T05:35:52.136Z,86.06
2022-07-25T05:38:21.762Z,84.08
2022-07-25T05:40:52.140Z,83.99
2022-07-25T05:43:20.834Z,84.32
2022-07-25T05:45:49.222Z,82.38
2022-07-25T05:48:17.700Z,83.28
2022-07-25T05:50:46.985Z,82.76
2022-07-25T05:53:15.215Z,81.32
2022-07-25T05:55:44.834Z,82.16
2022-07-25T05:58:13.130Z,81.77
2022-07-25T06:00:41.808Z,80.64
2022-07-25T06:03:10.167Z,80.78
2022-07-25T06:05:38.540Z,79.05
2022-07-25T06:08:07.327Z,79.32
2022-07-25T06:10:35.704Z,77.90
2022-07-25T06:13:07.254Z,77.38
2022-07-25T06:15:36.048Z,77.16
2022-07-25T06:18:04.455Z,77.61
2022-07-25T06:20:32.777Z,75.44
2022-07-25T06:23:03.186Z,76.09
2022-07-25T06:25:31.706Z,74.35
2022-07-25T06:28:01.066Z,74.18
2022-07-25T06:30:31.017Z,75.96
2022-07-25T06:32:59.450Z,71.58
2022-07-25T06:35:27.782Z,72.02
2022-07-25T06:37:55.994Z,70.95
2022-07-25T06:40:24.450Z,73.66
2022-07-25T06:42:53.595Z,70.77
2022-07-25T06:45:24.136Z,69.80
2022-07-25T06:47:54.787Z,69.42
2022-07-25T06:50:23.133Z,68.27
2022-07-25T06:52:51.894Z,69.16
2022-07-25T06:55:20.496Z,68.15
2022-07-25T06:57:48.841Z,66.90
2022-07-25T07:00:17.886Z,68.91
2022-07-25T07:02:51.902Z,62.88
2022-07-25T07:05:23.343Z,63.90
2022-07-25T07:07:51.932Z,64.59
2022-07-25T07:10:20.855Z,61.75
2022-07-25T07:12:50.308Z,59.74
2022-07-25T07:15:20.874Z,62.35
2022-07-25T07:17:49.301Z,63.32
2022-07-25T07:20:17.847Z,65.51
2022-07-25T07:22:50.244Z,62.29
2022-07-25T07:25:24.960Z,58.61
2022-07-25T07:28:07.913Z,56.31
2022-07-25T07:31:05.576Z,57.18
2022-07-25T07:33:24.941Z,58.83
2022-07-25T07:35:57.273Z,57.35
2022-07-25T07:38:27.713Z,58.23
2022-07-25T07:40:59.331Z,56.31
2022-07-25T07:43:31.935Z,58.02
2022-07-25T07:46:02.048Z,59.16
2022-07-25T07:48:31.407Z,60.42
2022-07-25T07:51:01.013Z,54.55
2022-07-25T07:53:45.210Z,55.15
2022-07-25T07:56:13.958Z,56.37
2022-07-25T07:58:42.293Z,53.96
2022-07-25T08:01:10.590Z,58.31
2022-07-25T08:03:39.291Z,58.00
2022-07-25T08:06:08.467Z,59.01
2022-07-25T08:08:38.066Z,55.77
2022-07-25T08:11:06.773Z,55.71
2022-07-25T08:13:38.003Z,51.10
2022-07-25T08:16:07.834Z,55.74
2022-07-25T08:18:36.192Z,59.71
2022-07-25T08:21:06.433Z,53.15
2022-07-25T08:23:38.969Z,50.66
2022-07-25T08:26:08.168Z,51.75
2022-07-25T08:28:36.426Z,50.52
2022-07-25T08:31:04.878Z,51.65
2022-07-25T08:33:33.392Z,47.96
2022-07-25T08:36:01.913Z,53.21
2022-07-25T08:38:30.653Z,49.58
2022-07-25T08:41:02.862Z,54.07
2022-07-25T08:43:33.711Z,52.41
2022-07-25T08:46:03.450Z,50.42
2022-07-25T08:48:32.230Z,51.45
2022-07-25T08:51:04.173Z,49.20
2022-07-25T08:53:35.061Z,55.26
2022-07-25T08:56:12.564Z,47.81
2022-07-25T08:58:44.793Z,51.50
2022-07-25T09:01:13.753Z,51.98
2022-07-25T09:03:44.117Z,47.95
2022-07-25T09:06:18.903Z,44.48
2022-07-25T09:08:56.014Z,47.25
2022-07-25T09:11:34.555Z,50.05
2022-07-25T09:14:07.093Z,49.19
2022-07-25T09:16:40.311Z,44.06
2022-07-25T09:19:16.060Z,42.05
2022-07-25T09:21:46.565Z,41.78
2022-07-25T09:24:22.491Z,45.94
2022-07-25T09:26:58.067Z,42.26
2022-07-25T09:29:29.011Z,49.66
2022-07-25T09:31:59.989Z,44.11
2022-07-25T09:34:38.034Z,42.11
2022-07-25T09:37:08.921Z,43.86
2022-07-25T09:39:45.810Z,42.25
2022-07-25T09:42:26.799Z,40.49
2022-07-25T09:45:06.408Z,37.51
2022-07-25T09:47:50.227Z,43.22
2022-07-25T09:50:20.052Z,38.60
2022-07-25T09:52:48.701Z,41.89
2022-07-25T09:55:17.081Z,44.84
2022-07-25T09:57:47.281Z,44.00
2022-07-25T10:00:21.404Z,40.82
2022-07-25T10:02:59.518Z,36.78
2022-07-25T10:05:46.078Z,37.06
2022-07-25T10:08:14.970Z,41.09
2022-07-25T10:10:44.043Z,40.67
2022-07-25T10:13:18.028Z,38.34
2022-07-25T10:15:50.138Z,37.73
2022-07-25T10:18:22.191Z,36.20
2022-07-25T10:20:54.632Z,35.83
2022-07-25T10:23:25.986Z,39.00
2022-07-25T10:26:09.075Z,35.93
2022-07-25T10:28:43.337Z,35.87
2022-07-25T10:31:22.959Z,37.62
2022-07-25T10:33:57.313Z,41.22
2022-07-25T10:36:29.399Z,40.25
2022-07-25T10:39:02.792Z,38.00
2022-07-25T10:41:31.088Z,39.00
2022-07-25T10:44:04.011Z,36.02
2022-07-25T10:46:36.732Z,36.56
2022-07-25T10:49:08.425Z,36.27
2022-07-25T10:51:41.820Z,35.47
2022-07-25T10:54:15.641Z,35.90
2022-07-25T10:56:55.398Z,35.30
2022-07-25T10:59:35.908Z,35.74
2022-07-25T11:02:06.605Z,34.87
2022-07-25T11:04:35.631Z,34.11
2022-07-25T11:07:11.257Z,34.85
2022-07-25T11:09:40.703Z,34.42
2022-07-25T11:12:10.154Z,34.74
2022-07-25T11:14:42.665Z,33.96
2022-07-25T11:17:15.688Z,33.55
2022-07-25T11:19:46.159Z,35.13
2022-07-25T11:22:14.493Z,35.46
2022-07-25T11:24:45.213Z,34.63
2022-07-25T11:27:21.467Z,34.17
2022-07-25T11:29:51.667Z,33.95
2022-07-25T11:32:21.045Z,34.01
2022-07-25T11:34:53.905Z,33.99
2022-07-25T11:37:23.174Z,35.86
2022-07-25T11:39:52.955Z,33.05
2022-07-25T11:42:22.486Z,34.62
2022-07-25T11:44:54.523Z,35.12
2022-07-25T11:47:28.667Z,34.91
2022-07-25T11:49:59.230Z,39.14
2022-07-25T11:52:31.199Z,35.18
2022-07-25T11:55:02.055Z,33.01
2022-07-25T11:57:33.877Z,33.15
2022-07-25T12:00:09.100Z,31.73
2022-07-25T12:02:37.900Z,32.70
2022-07-25T12:05:09.592Z,33.55
2022-07-25T12:07:40.841Z,30.56
2022-07-25T12:10:13.201Z,27.70
2022-07-25T12:12:48.638Z,26.79
2022-07-25T12:15:22.274Z,26.59
2022-07-25T12:17:51.875Z,26.43
2022-07-25T12:20:22.587Z,27.72
2022-07-25T12:22:53.482Z,27.75
2022-07-25T12:25:26.324Z,27.63
2022-07-25T12:27:58.790Z,27.61
2022-07-25T12:30:30.315Z,28.61
2022-07-25T12:33:00.105Z,27.77
2022-07-25T12:35:29.707Z,27.23
2022-07-25T12:37:58.324Z,29.00
2022-07-25T12:40:27.229Z,28.77
2022-07-25T12:42:55.528Z,27.34
2022-07-25T12:45:24.470Z,26.85
2022-07-25T12:47:54.650Z,27.49
2022-07-25T12:50:25.679Z,27.64
2022-07-25T12:52:54.548Z,28.50
2022-07-25T12:55:23.018Z,29.32
2022-07-25T12:57:52.538Z,28.88
2022-07-25T13:00:23.630Z,27.55
2022-07-25T13:02:55.972Z,28.78
2022-07-25T13:05:25.915Z,30.27
2022-07-25T13:07:54.365Z,29.48
2022-07-25T13:10:22.766Z,29.52
2022-07-25T13:12:51.836Z,30.25
2022-07-25T13:15:23.261Z,30.43
2022-07-25T13:17:53.863Z,29.16
2022-07-25T13:20:22.307Z,29.79
2022-07-25T13:22:50.942Z,29.43
2022-07-25T13:25:19.661Z,28.65
2022-07-25T13:27:49.558Z,28.39
2022-07-25T13:30:18.268Z,27.51
2022-07-25T13:32:46.777Z,27.60
2022-07-25T13:35:20.427Z,28.00
2022-07-25T13:37:50.255Z,28.13
2022-07-25T13:40:18.535Z,28.92
2022-07-25T13:42:46.879Z,29.08
2022-07-25T13:45:15.523Z,28.87
2022-07-25T13:47:43.946Z,28.69
2022-07-25T13:50:12.385Z,29.03
2022-07-25T13:52:42.090Z,28.82
2022-07-25T13:55:12.226Z,29.47
2022-07-25T13:57:40.511Z,30.49
2022-07-25T14:00:10.871Z,26.70
2022-07-25T14:02:39.494Z,26.85
2022-07-25T14:05:10.530Z,28.27
2022-07-25T14:07:38.929Z,29.17
2022-07-25T14:10:10.590Z,27.58
2022-07-25T14:12:40.559Z,28.27
2022-07-25T14:15:10.814Z,28.32
2022-07-25T14:17:39.877Z,28.54
2022-07-25T14:20:10.839Z,27.81
2022-07-25T14:22:39.648Z,27.89
2022-07-25T14:25:11.119Z,27.48
2022-07-25T14:27:40.238Z,27.45
2022-07-25T14:30:11.196Z,27.74
2022-07-25T14:32:39.578Z,28.85
2022-07-25T14:35:11.042Z,27.59
2022-07-25T14:37:40.506Z,27.05
2022-07-25T14:40:12.417Z,27.82
2022-07-25T14:42:41.899Z,28.24
2022-07-25T14:45:12.489Z,28.00
2022-07-25T14:47:42.615Z,26.75
2022-07-25T14:50:11.803Z,26.47
2022-07-25T14:52:40.414Z,26.24
2022-07-25T14:55:11.249Z,25.45
2022-07-25T14:57:39.571Z,26.51
2022-07-25T15:00:10.167Z,25.75
2022-07-25T15:02:38.420Z,26.21
2022-07-25T15:05:08.637Z,26.17
2022-07-25T15:07:38.547Z,26.85
2022-07-25T15:10:10.526Z,26.42
2022-07-25T15:12:39.255Z,26.47
2022-07-25T15:15:08.714Z,26.03
2022-07-25T15:17:37.215Z,25.37
2022-07-25T15:20:07.542Z,25.55
2022-07-25T15:22:36.304Z,26.33
2022-07-25T15:27:56.140Z,26.46
2022-07-25T15:30:29.186Z,25.62
2022-07-25T15:32:57.806Z,25.46
2022-07-25T15:35:26.201Z,25.94
2022-07-25T15:37:54.494Z,25.93
2022-07-25T15:40:23.263Z,25.98
2022-07-25T15:42:52.258Z,26.69
2022-07-25T15:45:38.028Z,27.22
2022-07-25T15:48:09.547Z,26.99
2022-07-25T15:50:40.721Z,27.43
2022-07-25T15:53:10.525Z,29.24
2022-07-25T15:55:42.204Z,29.88
2022-07-25T15:58:12.381Z,30.04
2022-07-25T16:00:43.230Z,30.37
2022-07-25T16:03:13.764Z,30.62
2022-07-25T16:05:44.195Z,31.21
2022-07-25T16:08:12.507Z,31.57
2022-07-25T16:10:41.653Z,31.84
2022-07-25T16:13:10.276Z,31.82
2022-07-25T16:15:39.694Z,32.57
2022-07-25T16:18:11.249Z,32.30
2022-07-25T16:20:39.902Z,32.55
2022-07-25T16:23:11.037Z,32.92
2022-07-25T16:25:39.901Z,33.96
2022-07-25T16:28:08.207Z,33.83
2022-07-25T16:30:36.963Z,33.77
2022-07-25T16:33:07.390Z,34.41
2022-07-25T16:35:37.178Z,34.99
2022-07-25T16:38:09.727Z,38.07
2022-07-25T16:40:38.330Z,43.92
2022-07-25T16:43:07.244Z,48.84
2022-07-25T16:45:38.027Z,49.02
2022-07-25T16:48:08.406Z,62.87
2022-07-25T16:50:38.692Z,72.39
2022-07-25T16:53:07.923Z,86.86
2022-07-25T16:55:36.577Z,93.10
2022-07-25T16:58:04.891Z,100.00
2022-07-25T17:00:33.542Z,100.00
2022-07-25T17:03:02.609Z,100.00
2022-07-25T17:05:31.271Z,100.00
2022-07-25T17:08:00.930Z,100.00
2022-07-25T17:10:34.351Z,100.00
2022-07-25T17:13:12.428Z,98.80
2022-07-25T17:16:59.681Z,100.00
2022-07-25T17:20:04.693Z,100.00
2022-07-25T17:22:54.158Z,98.61
2022-07-25T17:26:35.016Z,100.00
2022-07-25T17:33:13.327Z,94.37
2022-07-25T17:35:42.706Z,93.79
2022-07-25T17:38:14.381Z,92.08
2022-07-25T17:40:43.964Z,93.37
2022-07-25T17:43:14.922Z,85.78
2022-07-25T17:45:44.141Z,87.10
2022-07-25T17:48:13.622Z,85.95
2022-07-25T17:50:45.413Z,83.97
2022-07-25T17:53:18.649Z,83.39
2022-07-25T17:55:48.570Z,83.73
2022-07-25T17:58:21.694Z,86.65
2022-07-25T18:00:59.546Z,85.93
2022-07-25T18:03:50.298Z,86.39
2022-07-25T18:07:30.186Z,86.70
2022-07-25T18:10:04.359Z,88.01
2022-07-25T18:12:39.787Z,88.67
2022-07-25T18:15:16.732Z,89.16
2022-07-25T18:17:48.590Z,90.55
2022-07-25T18:20:18.816Z,91.87
2022-07-25T18:22:48.721Z,93.78
2022-07-25T18:25:18.738Z,95.67
2022-07-25T18:27:49.234Z,97.22
2022-07-25T18:30:19.105Z,96.60
2022-07-25T18:32:47.616Z,95.97
2022-07-25T18:35:15.919Z,96.76
2022-07-25T18:37:44.339Z,98.66
2022-07-25T18:40:13.944Z,97.84
2022-07-25T18:42:42.285Z,98.58
2022-07-25T18:45:12.628Z,98.65
2022-07-25T18:47:42.570Z,100.00
2022-07-25T18:50:11.514Z,100.00
2022-07-25T18:52:40.474Z,100.00
2022-07-25T18:55:10.618Z,100.00
2022-07-25T18:57:39.504Z,100.00
2022-07-25T19:00:10.695Z,100.00
2022-07-25T19:02:39.166Z,100.00
2022-07-25T19:05:10.319Z,100.00
2022-07-25T19:07:39.896Z,100.00
2022-07-25T19:10:09.200Z,100.00
2022-07-25T19:12:37.976Z,100.00
2022-07-25T19:15:07.870Z,100.00
2022-07-25T19:17:37.692Z,100.00
2022-07-25T19:20:09.601Z,100.00
2022-07-25T19:22:37.877Z,100.00
2022-07-25T19:25:08.514Z,100.00
2022-07-25T19:27:38.129Z,100.00
2022-07-25T19:30:13.879Z,100.00
2022-07-25T19:32:46.334Z,100.00
2022-07-25T19:35:16.061Z,100.00
2022-07-25T19:37:44.335Z,100.00
2022-07-25T19:40:13.881Z,100.00
2022-07-25T19:42:42.664Z,100.00
2022-07-25T19:45:12.255Z,100.00
2022-07-25T19:47:40.504Z,100.00
2022-07-25T19:50:10.004Z,100.00
2022-07-25T19:52:39.856Z,100.00
2022-07-25T19:55:10.019Z,100.00
2022-07-25T19:57:38.456Z,100.00
2022-07-25T20:00:08.757Z,100.00
2022-07-25T20:02:41.597Z,100.00
2022-07-25T20:05:12.293Z,100.00
2022-07-25T20:07:41.921Z,100.00
2022-07-25T20:10:11.518Z,100.00
2022-07-25T20:12:41.590Z,100.00
2022-07-25T20:15:10.483Z,100.00
2022-07-25T20:17:39.184Z,100.00
2022-07-25T20:20:09.321Z,100.00
2022-07-25T20:22:38.660Z,100.00
2022-07-25T20:25:11.737Z,100.00
2022-07-25T20:27:40.291Z,100.00
2022-07-25T20:30:11.683Z,100.00
2022-07-25T20:32:40.360Z,100.00
2022-07-25T20:35:09.443Z,100.00
2022-07-25T20:37:38.086Z,100.00
2022-07-25T20:40:11.979Z,100.00
2022-07-25T20:42:40.494Z,100.00
2022-07-25T20:45:10.268Z,100.00
2022-07-25T20:47:38.915Z,100.00
2022-07-25T20:50:09.585Z,100.00
2022-07-25T20:52:40.157Z,100.00
2022-07-25T20:55:10.804Z,100.00
2022-07-25T20:57:39.070Z,100.00
2022-07-25T21:00:09.014Z,100.00
2022-07-25T21:02:37.424Z,100.00
2022-07-25T21:05:06.932Z,100.00
2022-07-25T21:07:35.309Z,100.00
2022-07-25T21:10:03.538Z,100.00
2022-07-25T21:12:33.362Z,100.00
2022-07-25T21:15:02.108Z,100.00
2022-07-25T21:17:30.585Z,100.00
2022-07-25T21:19:58.930Z,100.00
2022-07-25T21:22:27.386Z,100.00
2022-07-25T21:24:55.733Z,100.00
2022-07-25T21:27:24.040Z,100.00
2022-07-25T21:29:53.676Z,100.00
2022-07-25T21:32:23.506Z,100.00
2022-07-25T21:34:52.173Z,100.00
2022-07-25T21:37:20.427Z,100.00
2022-07-25T21:39:49.025Z,100.00
2022-07-25T21:42:17.698Z,100.00
2022-07-25T21:44:46.680Z,100.00
2022-07-25T21:47:16.421Z,100.00
2022-07-25T21:50:13.793Z,100.00
2022-07-25T21:52:47.716Z,100.00
2022-07-25T21:55:16.877Z,100.00
2022-07-25T21:57:45.445Z,100.00
2022-07-25T22:00:15.851Z,100.00
2022-07-25T22:02:47.569Z,100.00
2022-07-25T22:05:18.710Z,100.00
2022-07-25T22:07:48.556Z,100.00
2022-07-25T22:10:19.541Z,100.00
2022-07-25T22:12:48.378Z,100.00
2022-07-25T22:15:17.279Z,100.00
2022-07-25T22:17:49.482Z,100.00
2022-07-25T22:20:19.171Z,100.00
2022-07-25T22:22:47.751Z,100.00
2022-07-25T22:25:16.257Z,100.00
2022-07-25T22:27:45.005Z,100.00
2022-07-25T22:30:18.859Z,100.00
2022-07-25T22:32:49.879Z,97.86
2022-07-25T22:35:19.154Z,100.00
2022-07-25T22:37:47.587Z,100.00
2022-07-25T22:40:16.230Z,100.00
2022-07-25T22:42:44.530Z,100.00
2022-07-25T22:45:12.946Z,99.06
2022-07-25T22:47:41.326Z,98.79
2022-07-25T22:50:11.678Z,98.42
2022-07-25T22:52:39.959Z,97.96
2022-07-25T22:55:09.389Z,95.59
2022-07-25T22:57:37.901Z,96.65
2022-07-25T23:00:11.126Z,95.31
2022-07-25T23:02:39.867Z,96.30
2022-07-25T23:05:10.966Z,96.50
2022-07-25T23:07:39.600Z,95.43
2022-07-25T23:10:09.292Z,96.06
2022-07-25T23:12:37.745Z,95.66
2022-07-25T23:15:07.247Z,94.55
2022-07-25T23:17:35.495Z,95.30
2022-07-25T23:20:04.739Z,95.13
2022-07-25T23:22:34.522Z,95.92
2022-07-25T23:25:03.017Z,98.20
2022-07-25T23:27:34.905Z,99.25
2022-07-25T23:30:05.049Z,100.00
2022-07-25T23:32:33.478Z,99.43
2022-07-25T23:35:01.747Z,96.51
2022-07-25T23:37:29.980Z,93.67
2022-07-25T23:39:59.675Z,93.88
2022-07-25T23:42:28.020Z,94.94
2022-07-25T23:44:56.376Z,97.76
2022-07-25T23:47:36.784Z,100.00
2022-07-25T23:50:10.710Z,100.00
2022-07-25T23:52:39.535Z,100.00
2022-07-25T23:55:10.828Z,100.00
2022-07-25T23:57:39.031Z,100.00
